createdAt,value
2023-02-24T00:00:26.002Z,8.59
2023-02-24T00:01:26.009Z,8.60
2023-02-24T00:02:26.029Z,8.55
2023-02-24T00:03:26.026Z,8.50
2023-02-24T00:04:25.959Z,8.50
2023-02-24T00:05:25.936Z,8.53
2023-02-24T00:06:25.927Z,8.50
2023-02-24T00:07:25.911Z,8.47
2023-02-24T00:08:25.904Z,8.50
2023-02-24T00:09:25.893Z,8.53
2023-02-24T00:10:25.889Z,8.53
2023-02-24T00:11:25.864Z,8.52
2023-02-24T00:12:25.858Z,8.53
2023-02-24T00:13:25.847Z,8.55
2023-02-24T00:14:25.842Z,8.57
2023-02-24T00:15:25.825Z,8.56
2023-02-24T00:16:26.026Z,8.55
2023-02-24T00:17:25.908Z,8.52
2023-02-24T00:18:25.803Z,8.52
2023-02-24T00:19:25.812Z,8.50
2023-02-24T00:20:25.765Z,8.47
2023-02-24T00:21:25.768Z,8.49
2023-02-24T00:22:25.757Z,8.49
2023-02-24T00:23:25.740Z,8.49
2023-02-24T00:24:25.717Z,8.52
2023-02-24T00:25:25.715Z,8.53
2023-02-24T00:26:25.695Z,8.53
2023-02-24T00:27:25.693Z,8.57
2023-02-24T00:28:25.674Z,8.59
2023-02-24T00:29:25.674Z,8.57
2023-02-24T00:30:25.664Z,8.55
2023-02-24T00:31:26.041Z,8.55
2023-02-24T00:32:25.817Z,8.52
2023-02-24T00:33:25.630Z,8.50
2023-02-24T00:34:25.622Z,8.50
2023-02-24T00:35:25.633Z,8.49
2023-02-24T00:36:25.602Z,8.49
2023-02-24T00:37:25.589Z,8.47
2023-02-24T00:38:25.583Z,8.46
2023-02-24T00:39:25.565Z,8.42
2023-02-24T00:40:25.557Z,8.39
2023-02-24T00:41:25.556Z,8.39
2023-02-24T00:42:25.533Z,8.39
2023-02-24T00:43:25.527Z,8.37
2023-02-24T00:44:25.511Z,8.37
2023-02-24T00:45:25.504Z,8.33
2023-02-24T00:46:25.588Z,8.37
2023-02-24T00:47:25.482Z,8.34
2023-02-24T00:48:25.473Z,8.34
2023-02-24T00:49:25.455Z,8.33
2023-02-24T00:50:25.439Z,8.33
2023-02-24T00:51:25.475Z,8.34
2023-02-24T00:52:25.431Z,8.38
2023-02-24T00:53:25.412Z,8.30
2023-02-24T00:54:25.441Z,8.28
2023-02-24T00:55:25.393Z,8.25
2023-02-24T00:56:25.381Z,8.22
2023-02-24T00:57:25.362Z,8.20
2023-02-24T00:58:25.359Z,8.20
2023-02-24T00:59:25.347Z,8.15
2023-02-24T01:00:25.333Z,8.15
2023-02-24T01:01:25.366Z,8.18
2023-02-24T01:02:25.316Z,8.15
2023-02-24T01:03:25.303Z,8.12
2023-02-24T01:04:25.289Z,8.03
2023-02-24T01:05:25.279Z,8.01
2023-02-24T01:06:25.262Z,8.01
2023-02-24T01:07:25.286Z,8.03
2023-02-24T01:08:25.241Z,8.00
2023-02-24T01:09:25.236Z,7.95
2023-02-24T01:10:25.222Z,7.90
2023-02-24T01:11:25.206Z,7.83
2023-02-24T01:12:25.203Z,7.86
2023-02-24T01:13:25.182Z,7.80
2023-02-24T01:14:25.177Z,7.80
2023-02-24T01:15:25.168Z,7.85
2023-02-24T01:16:25.163Z,7.80
2023-02-24T01:17:25.140Z,7.76
2023-02-24T01:18:25.127Z,7.75
2023-02-24T01:19:25.124Z,7.73
2023-02-24T01:20:25.116Z,7.67
2023-02-24T01:21:25.102Z,7.61
2023-02-24T01:22:25.093Z,7.61
2023-02-24T01:23:25.099Z,7.60
2023-02-24T01:24:25.071Z,7.60
2023-02-24T01:25:25.047Z,7.57
2023-02-24T01:26:25.034Z,7.55
2023-02-24T01:27:25.032Z,7.57
2023-02-24T01:28:25.022Z,7.49
2023-02-24T01:29:25.005Z,7.49
2023-02-24T01:30:24.993Z,7.43
2023-02-24T01:31:25.539Z,7.40
2023-02-24T01:32:25.230Z,7.31
2023-02-24T01:33:25.051Z,7.21
2023-02-24T01:34:24.952Z,7.15
2023-02-24T01:35:24.939Z,7.04
2023-02-24T01:36:24.922Z,7.01
2023-02-24T01:37:24.911Z,6.99
2023-02-24T01:38:24.918Z,7.01
2023-02-24T01:39:24.914Z,7.00
2023-02-24T01:40:24.895Z,6.90
2023-02-24T01:41:24.874Z,6.90
2023-02-24T01:42:24.863Z,6.90
2023-02-24T01:43:24.851Z,6.91
2023-02-24T01:44:24.839Z,6.88
2023-02-24T01:45:25.197Z,6.80
2023-02-24T01:46:24.881Z,6.70
2023-02-24T01:47:24.798Z,6.62
2023-02-24T01:48:24.804Z,6.62
2023-02-24T01:49:24.780Z,6.66
2023-02-24T01:50:24.763Z,6.72
2023-02-24T01:51:24.762Z,6.77
2023-02-24T01:52:24.746Z,6.81
2023-02-24T01:53:24.738Z,6.87
2023-02-24T01:54:24.730Z,6.88
2023-02-24T01:55:24.737Z,6.97
2023-02-24T01:56:24.703Z,6.99
2023-02-24T01:57:24.694Z,7.01
2023-02-24T01:58:24.673Z,7.00
2023-02-24T01:59:24.680Z,7.01
2023-02-24T02:00:24.664Z,6.91
2023-02-24T02:01:24.747Z,6.87
2023-02-24T02:02:24.807Z,6.87
2023-02-24T02:03:24.622Z,6.88
2023-02-24T02:04:24.619Z,6.82
2023-02-24T02:05:24.604Z,6.77
2023-02-24T02:06:24.594Z,6.78
2023-02-24T02:07:24.591Z,6.81
2023-02-24T02:08:24.616Z,6.78
2023-02-24T02:09:24.556Z,6.72
2023-02-24T02:10:24.571Z,6.74
2023-02-24T02:11:24.554Z,6.73
2023-02-24T02:12:24.529Z,6.69
2023-02-24T02:13:24.627Z,6.67
2023-02-24T02:14:24.515Z,6.62
2023-02-24T02:15:24.497Z,6.62
2023-02-24T02:16:24.530Z,6.63
2023-02-24T02:17:24.477Z,6.62
2023-02-24T02:18:24.449Z,6.63
2023-02-24T02:19:24.441Z,6.59
2023-02-24T02:20:24.420Z,6.45
2023-02-24T02:21:24.415Z,6.34
2023-02-24T02:22:24.398Z,6.27
2023-02-24T02:23:24.390Z,6.24
2023-02-24T02:24:24.377Z,6.26
2023-02-24T02:25:24.376Z,6.24
2023-02-24T02:26:24.380Z,6.27
2023-02-24T02:27:24.364Z,6.33
2023-02-24T02:28:24.347Z,6.34
2023-02-24T02:29:24.336Z,6.31
2023-02-24T02:30:24.317Z,6.27
2023-02-24T02:31:24.957Z,6.23
2023-02-24T02:32:24.449Z,6.21
2023-02-24T02:33:24.289Z,6.16
2023-02-24T02:34:24.266Z,6.13
2023-02-24T02:35:24.267Z,6.08
2023-02-24T02:36:24.253Z,5.95
2023-02-24T02:37:24.250Z,5.93
2023-02-24T02:38:24.221Z,5.95
2023-02-24T02:39:24.229Z,5.98
2023-02-24T02:40:24.216Z,5.98
2023-02-24T02:41:24.202Z,5.90
2023-02-24T02:42:24.196Z,5.88
2023-02-24T02:43:24.196Z,5.82
2023-02-24T02:44:24.164Z,5.80
2023-02-24T02:45:24.216Z,5.75
2023-02-24T02:46:24.143Z,5.73
2023-02-24T02:47:24.141Z,5.77
2023-02-24T02:48:24.135Z,5.80
2023-02-24T02:49:24.109Z,5.87
2023-02-24T02:50:24.098Z,5.88
2023-02-24T02:51:24.081Z,5.88
2023-02-24T02:52:24.062Z,5.94
2023-02-24T02:53:24.050Z,5.91
2023-02-24T02:54:24.047Z,5.93
2023-02-24T02:55:24.036Z,5.97
2023-02-24T02:56:24.020Z,5.97
2023-02-24T02:57:24.012Z,5.95
2023-02-24T02:58:24.001Z,5.91
2023-02-24T02:59:24.026Z,5.91
2023-02-24T03:00:23.980Z,5.88
2023-02-24T03:01:24.219Z,5.91
2023-02-24T03:02:23.959Z,5.93
2023-02-24T03:03:23.939Z,5.93
2023-02-24T03:04:23.972Z,5.88
2023-02-24T03:05:23.917Z,5.80
2023-02-24T03:06:23.932Z,5.77
2023-02-24T03:07:23.905Z,5.79
2023-02-24T03:08:23.907Z,5.76
2023-02-24T03:09:23.884Z,5.70
2023-02-24T03:10:23.875Z,5.59
2023-02-24T03:11:23.863Z,5.61
2023-02-24T03:12:23.855Z,5.65
2023-02-24T03:13:23.836Z,5.65
2023-02-24T03:14:23.829Z,5.61
2023-02-24T03:15:23.836Z,5.62
2023-02-24T03:16:23.855Z,5.65
2023-02-24T03:17:23.796Z,5.62
2023-02-24T03:18:23.793Z,5.65
2023-02-24T03:19:23.781Z,5.66
2023-02-24T03:20:23.753Z,5.66
2023-02-24T03:21:23.838Z,5.62
2023-02-24T03:22:23.736Z,5.59
2023-02-24T03:23:23.726Z,5.57
2023-02-24T03:24:23.719Z,5.57
2023-02-24T03:25:23.705Z,5.65
2023-02-24T03:26:23.690Z,5.59
2023-02-24T03:27:23.685Z,5.58
2023-02-24T03:28:23.683Z,5.57
2023-02-24T03:29:23.657Z,5.62
2023-02-24T03:30:23.649Z,5.67
2023-02-24T03:31:24.282Z,5.65
2023-02-24T03:32:23.798Z,5.61
2023-02-24T03:33:23.636Z,5.61
2023-02-24T03:34:23.605Z,5.65
2023-02-24T03:35:23.605Z,5.58
2023-02-24T03:36:23.581Z,5.55
2023-02-24T03:37:23.577Z,5.50
2023-02-24T03:38:23.574Z,5.39
2023-02-24T03:39:23.549Z,5.36
2023-02-24T03:40:23.537Z,5.36
2023-02-24T03:41:23.660Z,5.40
2023-02-24T03:42:23.543Z,5.42
2023-02-24T03:43:23.508Z,5.36
2023-02-24T03:44:23.506Z,5.39
2023-02-24T03:45:23.502Z,5.43
2023-02-24T03:46:23.606Z,5.46
2023-02-24T03:47:23.482Z,5.46
2023-02-24T03:48:23.448Z,5.49
2023-02-24T03:49:23.442Z,5.50
2023-02-24T03:50:23.427Z,5.46
2023-02-24T03:51:23.544Z,5.42
2023-02-24T03:52:23.414Z,5.38
2023-02-24T03:53:23.393Z,5.40
2023-02-24T03:54:23.388Z,5.39
2023-02-24T03:55:23.370Z,5.31
2023-02-24T03:56:23.365Z,5.23
2023-02-24T03:57:23.361Z,5.26
2023-02-24T03:58:23.336Z,5.28
2023-02-24T03:59:23.333Z,5.29
2023-02-24T04:00:23.333Z,5.31
2023-02-24T04:01:23.578Z,5.32
2023-02-24T04:02:23.344Z,5.29
2023-02-24T04:03:23.316Z,5.32
2023-02-24T04:04:23.339Z,5.36
2023-02-24T04:05:23.270Z,5.33
2023-02-24T04:06:23.378Z,5.35
2023-02-24T04:07:23.252Z,5.38
2023-02-24T04:08:23.236Z,5.36
2023-02-24T04:09:23.218Z,5.36
2023-02-24T04:10:23.201Z,5.39
2023-02-24T04:11:23.398Z,5.39
2023-02-24T04:12:23.261Z,5.42
2023-02-24T04:13:23.169Z,5.47
2023-02-24T04:14:23.169Z,5.52
2023-02-24T04:15:23.150Z,5.49
2023-02-24T04:16:23.138Z,5.50
2023-02-24T04:17:23.130Z,5.47
2023-02-24T04:18:23.136Z,5.46
2023-02-24T04:19:23.136Z,5.47
2023-02-24T04:20:23.108Z,5.47
2023-02-24T04:21:23.317Z,5.50
2023-02-24T04:22:23.066Z,5.52
2023-02-24T04:23:23.057Z,5.55
2023-02-24T04:24:23.049Z,5.54
2023-02-24T04:25:23.038Z,5.54
2023-02-24T04:26:23.028Z,5.55
2023-02-24T04:27:23.026Z,5.57
2023-02-24T04:28:23.013Z,5.55
2023-02-24T04:29:23.067Z,5.54
2023-02-24T04:30:22.984Z,5.55
2023-02-24T04:31:23.649Z,5.50
2023-02-24T04:32:23.120Z,5.40
2023-02-24T04:33:22.946Z,5.36
2023-02-24T04:34:22.952Z,5.38
2023-02-24T04:35:23.004Z,5.39
2023-02-24T04:36:22.922Z,5.42
2023-02-24T04:37:22.997Z,5.43
2023-02-24T04:38:22.901Z,5.46
2023-02-24T04:39:22.881Z,5.50
2023-02-24T04:40:22.873Z,5.52
2023-02-24T04:41:23.284Z,5.50
2023-02-24T04:42:22.842Z,5.46
2023-02-24T04:43:22.836Z,5.47
2023-02-24T04:44:22.821Z,5.50
2023-02-24T04:45:22.819Z,5.49
2023-02-24T04:46:22.847Z,5.47
2023-02-24T04:47:22.825Z,5.43
2023-02-24T04:48:22.780Z,5.42
2023-02-24T04:49:22.770Z,5.39
2023-02-24T04:50:22.789Z,5.33
2023-02-24T04:51:23.131Z,5.31
2023-02-24T04:52:22.737Z,5.31
2023-02-24T04:53:22.720Z,5.35
2023-02-24T04:54:22.717Z,5.38
2023-02-24T04:55:22.705Z,5.39
2023-02-24T04:56:22.692Z,5.38
2023-02-24T04:57:22.684Z,5.35
2023-02-24T04:58:22.684Z,5.38
2023-02-24T04:59:22.670Z,5.38
2023-02-24T05:00:22.653Z,5.39
2023-02-24T05:01:22.867Z,5.42
2023-02-24T05:02:22.627Z,5.40
2023-02-24T05:03:22.701Z,5.40
2023-02-24T05:04:22.632Z,5.40
2023-02-24T05:05:22.589Z,5.40
2023-02-24T05:06:22.601Z,5.38
2023-02-24T05:07:22.618Z,5.36
2023-02-24T05:08:22.561Z,5.32
2023-02-24T05:09:22.548Z,5.32
2023-02-24T05:10:22.539Z,5.32
2023-02-24T05:11:23.063Z,5.33
2023-02-24T05:12:22.510Z,5.36
2023-02-24T05:13:22.495Z,5.38
2023-02-24T05:14:22.493Z,5.36
2023-02-24T05:15:22.480Z,5.33
2023-02-24T05:16:22.575Z,5.32
2023-02-24T05:17:22.465Z,5.31
2023-02-24T05:18:22.449Z,5.29
2023-02-24T05:19:22.429Z,5.32
2023-02-24T05:20:22.424Z,5.35
2023-02-24T05:21:22.693Z,5.36
2023-02-24T05:22:22.403Z,5.35
2023-02-24T05:23:22.408Z,5.35
2023-02-24T05:24:22.374Z,5.35
2023-02-24T05:25:22.374Z,5.33
2023-02-24T05:26:22.360Z,5.35
2023-02-24T05:27:22.350Z,5.36
2023-02-24T05:28:22.331Z,5.36
2023-02-24T05:29:22.324Z,5.38
2023-02-24T05:30:22.424Z,5.39
2023-02-24T05:31:22.712Z,5.39
2023-02-24T05:32:22.545Z,5.40
2023-02-24T05:33:22.281Z,5.39
2023-02-24T05:34:22.275Z,5.40
2023-02-24T05:35:22.253Z,5.43
2023-02-24T05:36:22.267Z,5.42
2023-02-24T05:37:22.229Z,5.39
2023-02-24T05:38:22.221Z,5.39
2023-02-24T05:39:22.245Z,5.40
2023-02-24T05:40:22.193Z,5.40
2023-02-24T05:41:22.491Z,5.39
2023-02-24T05:42:22.180Z,5.36
2023-02-24T05:43:22.156Z,5.35
2023-02-24T05:44:22.151Z,5.35
2023-02-24T05:45:22.143Z,5.35
2023-02-24T05:46:22.152Z,5.32
2023-02-24T05:47:22.115Z,5.33
2023-02-24T05:48:22.099Z,5.38
2023-02-24T05:49:22.099Z,5.39
2023-02-24T05:50:22.082Z,5.40
2023-02-24T05:51:22.348Z,5.40
2023-02-24T05:52:22.054Z,5.38
2023-02-24T05:53:22.043Z,5.36
2023-02-24T05:54:22.034Z,5.38
2023-02-24T05:55:22.058Z,5.38
2023-02-24T05:56:22.016Z,5.36
2023-02-24T05:57:22.006Z,5.35
2023-02-24T05:58:21.993Z,5.35
2023-02-24T05:59:21.977Z,5.35
2023-02-24T06:00:21.975Z,5.35
2023-02-24T06:01:22.293Z,5.35
2023-02-24T06:02:22.069Z,5.36
2023-02-24T06:03:22.011Z,5.36
2023-02-24T06:04:21.928Z,5.32
2023-02-24T06:05:21.912Z,5.32
2023-02-24T06:06:21.910Z,5.32
2023-02-24T06:07:21.898Z,5.32
2023-02-24T06:08:21.888Z,5.32
2023-02-24T06:09:21.864Z,5.32
2023-02-24T06:10:21.862Z,5.32
2023-02-24T06:11:22.405Z,5.33
2023-02-24T06:12:21.844Z,5.31
2023-02-24T06:13:21.818Z,5.32
2023-02-24T06:14:21.804Z,5.33
2023-02-24T06:15:21.805Z,5.33
2023-02-24T06:16:21.846Z,5.31
2023-02-24T06:17:21.822Z,5.31
2023-02-24T06:18:21.775Z,5.33
2023-02-24T06:19:21.801Z,5.35
2023-02-24T06:20:21.758Z,5.31
2023-02-24T06:21:23.872Z,5.31
2023-02-24T06:22:21.721Z,5.29
2023-02-24T06:23:21.790Z,5.28
2023-02-24T06:24:21.699Z,5.28
2023-02-24T06:25:21.741Z,5.26
2023-02-24T06:26:21.705Z,5.28
2023-02-24T06:27:21.909Z,5.31
2023-02-24T06:28:21.666Z,5.31
2023-02-24T06:29:21.676Z,5.32
2023-02-24T06:30:21.749Z,5.29
2023-02-24T06:31:22.005Z,5.28
2023-02-24T06:32:21.785Z,5.29
2023-02-24T06:33:21.651Z,5.31
2023-02-24T06:34:21.590Z,5.31
2023-02-24T06:35:21.580Z,5.32
2023-02-24T06:36:21.570Z,5.33
2023-02-24T06:37:21.557Z,5.32
2023-02-24T06:38:21.543Z,5.38
2023-02-24T06:39:21.592Z,5.40
2023-02-24T06:40:21.517Z,5.46
2023-02-24T06:41:21.758Z,5.42
2023-02-24T06:42:21.525Z,5.46
2023-02-24T06:43:21.554Z,5.47
2023-02-24T06:44:21.474Z,5.49
2023-02-24T06:45:21.504Z,5.50
2023-02-24T06:46:21.534Z,5.54
2023-02-24T06:47:21.446Z,5.54
2023-02-24T06:48:21.430Z,5.55
2023-02-24T06:49:21.456Z,5.58
2023-02-24T06:50:21.416Z,5.57
2023-02-24T06:51:21.691Z,5.58
2023-02-24T06:52:21.392Z,5.55
2023-02-24T06:53:21.448Z,5.57
2023-02-24T06:54:21.360Z,5.58
2023-02-24T06:55:21.383Z,5.61
2023-02-24T06:56:21.346Z,5.59
2023-02-24T06:57:21.347Z,5.55
2023-02-24T06:58:21.329Z,5.54
2023-02-24T06:59:21.326Z,5.54
2023-02-24T07:00:21.297Z,5.54
2023-02-24T07:01:21.564Z,5.57
2023-02-24T07:02:21.283Z,5.57
2023-02-24T07:03:21.275Z,5.57
2023-02-24T07:04:21.353Z,5.58
2023-02-24T07:05:21.299Z,5.59
2023-02-24T07:06:21.228Z,5.62
2023-02-24T07:07:21.280Z,5.67
2023-02-24T07:08:21.227Z,5.69
2023-02-24T07:09:21.222Z,5.70
2023-02-24T07:10:21.179Z,5.72
2023-02-24T07:11:21.502Z,5.72
2023-02-24T07:12:21.360Z,5.73
2023-02-24T07:13:21.213Z,5.72
2023-02-24T07:14:21.142Z,5.72
2023-02-24T07:15:21.185Z,5.66
2023-02-24T07:16:21.197Z,5.66
2023-02-24T07:17:21.149Z,5.66
2023-02-24T07:18:21.093Z,5.66
2023-02-24T07:19:21.122Z,5.66
2023-02-24T07:20:21.069Z,5.69
2023-02-24T07:21:21.437Z,5.70
2023-02-24T07:22:21.051Z,5.73
2023-02-24T07:23:21.057Z,5.76
2023-02-24T07:24:21.029Z,5.76
2023-02-24T07:25:21.010Z,5.77
2023-02-24T07:26:21.010Z,5.76
2023-02-24T07:27:20.996Z,5.72
2023-02-24T07:28:20.978Z,5.70
2023-02-24T07:29:21.001Z,5.67
2023-02-24T07:30:20.961Z,5.69
2023-02-24T07:31:21.514Z,5.70
2023-02-24T07:32:21.136Z,5.69
2023-02-24T07:33:20.924Z,5.70
2023-02-24T07:34:20.915Z,5.70
2023-02-24T07:35:20.905Z,5.66
2023-02-24T07:36:20.894Z,5.66
2023-02-24T07:37:20.884Z,5.66
2023-02-24T07:38:20.866Z,5.67
2023-02-24T07:39:20.855Z,5.72
2023-02-24T07:40:20.855Z,5.72
2023-02-24T07:41:21.163Z,5.72
2023-02-24T07:42:20.829Z,5.67
2023-02-24T07:43:20.816Z,5.69
2023-02-24T07:44:20.799Z,5.69
2023-02-24T07:45:20.884Z,5.72
2023-02-24T07:46:20.826Z,5.73
2023-02-24T07:47:20.792Z,5.75
2023-02-24T07:48:20.756Z,5.77
2023-02-24T07:49:20.746Z,5.75
2023-02-24T07:50:20.734Z,5.76
2023-02-24T07:51:21.082Z,5.80
2023-02-24T07:52:20.711Z,5.84
2023-02-24T07:53:20.722Z,5.85
2023-02-24T07:54:20.682Z,5.85
2023-02-24T07:55:20.684Z,5.88
2023-02-24T07:56:20.663Z,5.90
2023-02-24T07:57:20.655Z,5.88
2023-02-24T07:58:20.638Z,5.87
2023-02-24T07:59:20.636Z,5.87
2023-02-24T08:00:20.641Z,5.88
2023-02-24T08:01:20.938Z,5.90
2023-02-24T08:02:20.721Z,5.91
2023-02-24T08:03:20.622Z,5.93
2023-02-24T08:04:20.587Z,5.98
2023-02-24T08:05:20.577Z,6.06
2023-02-24T08:06:20.553Z,6.09
2023-02-24T08:07:20.575Z,6.11
2023-02-24T08:08:20.524Z,6.12
2023-02-24T08:09:20.631Z,6.11
2023-02-24T08:10:20.508Z,6.08
2023-02-24T08:11:20.811Z,6.03
2023-02-24T08:12:20.488Z,6.11
2023-02-24T08:13:20.485Z,6.12
2023-02-24T08:14:20.470Z,6.15
2023-02-24T08:15:20.454Z,6.15
2023-02-24T08:16:20.471Z,6.18
2023-02-24T08:17:20.424Z,6.21
2023-02-24T08:18:20.423Z,6.19
2023-02-24T08:19:20.427Z,6.23
2023-02-24T08:20:20.403Z,6.24
2023-02-24T08:21:20.758Z,6.29
2023-02-24T08:22:20.377Z,6.30
2023-02-24T08:23:20.357Z,6.30
2023-02-24T08:24:20.352Z,6.30
2023-02-24T08:25:20.342Z,6.31
2023-02-24T08:26:20.386Z,6.37
2023-02-24T08:27:20.361Z,6.42
2023-02-24T08:28:20.306Z,6.45
2023-02-24T08:29:20.300Z,6.46
2023-02-24T08:30:20.286Z,6.46
2023-02-24T08:31:20.878Z,6.51
2023-02-24T08:32:20.909Z,6.51
2023-02-24T08:33:20.271Z,6.51
2023-02-24T08:34:20.239Z,6.54
2023-02-24T08:35:20.257Z,6.59
2023-02-24T08:36:20.222Z,6.64
2023-02-24T08:37:20.213Z,6.70
2023-02-24T08:38:20.198Z,6.74
2023-02-24T08:39:20.186Z,6.81
2023-02-24T08:40:20.174Z,6.82
2023-02-24T08:41:20.784Z,6.81
2023-02-24T08:42:20.149Z,6.74
2023-02-24T08:43:20.149Z,6.78
2023-02-24T08:44:20.133Z,6.82
2023-02-24T08:45:20.120Z,6.90
2023-02-24T08:46:20.130Z,6.96
2023-02-24T08:47:20.096Z,7.00
2023-02-24T08:48:20.092Z,7.07
2023-02-24T08:49:20.082Z,7.10
2023-02-24T08:50:20.061Z,7.13
2023-02-24T08:51:20.485Z,7.15
2023-02-24T08:52:20.052Z,7.21
2023-02-24T08:53:20.047Z,7.25
2023-02-24T08:54:20.039Z,7.36
2023-02-24T08:55:20.007Z,7.42
2023-02-24T08:56:20.338Z,7.46
2023-02-24T08:57:19.994Z,7.47
2023-02-24T08:58:19.975Z,7.50
2023-02-24T08:59:19.977Z,7.52
2023-02-24T09:00:19.960Z,7.55
2023-02-24T09:01:20.575Z,7.57
2023-02-24T09:02:19.945Z,7.57
2023-02-24T09:03:19.921Z,7.60
2023-02-24T09:04:20.009Z,7.58
2023-02-24T09:05:19.901Z,7.55
2023-02-24T09:06:19.895Z,7.47
2023-02-24T09:07:19.919Z,7.47
2023-02-24T09:08:19.876Z,7.52
2023-02-24T09:09:19.868Z,7.50
2023-02-24T09:10:19.850Z,7.47
2023-02-24T09:11:20.248Z,7.44
2023-02-24T09:12:19.832Z,7.34
2023-02-24T09:13:19.814Z,7.37
2023-02-24T09:14:28.199Z,7.43
2023-02-24T09:15:19.798Z,7.46
2023-02-24T09:16:19.850Z,7.50
2023-02-24T09:17:19.781Z,7.55
2023-02-24T09:18:19.763Z,7.55
2023-02-24T09:19:19.763Z,7.54
2023-02-24T09:20:19.743Z,7.52
2023-02-24T09:21:20.034Z,7.55
2023-02-24T09:22:21.517Z,7.55
2023-02-24T09:23:19.737Z,7.55
2023-02-24T09:24:19.700Z,7.55
2023-02-24T09:25:19.700Z,7.50
2023-02-24T09:26:19.681Z,7.47
2023-02-24T09:27:19.670Z,7.50
2023-02-24T09:28:19.768Z,7.47
2023-02-24T09:29:19.646Z,7.44
2023-02-24T09:30:19.634Z,7.39
2023-02-24T09:31:19.904Z,7.34
2023-02-24T09:32:19.779Z,7.31
2023-02-24T09:33:19.600Z,7.33
2023-02-24T09:34:19.583Z,7.33
2023-02-24T09:35:19.574Z,7.33
2023-02-24T09:36:19.568Z,7.34
2023-02-24T09:37:19.558Z,7.37
2023-02-24T09:38:19.589Z,7.42
2023-02-24T09:39:19.560Z,7.44
2023-02-24T09:40:19.556Z,7.49
2023-02-24T09:41:19.536Z,7.50
2023-02-24T09:42:19.504Z,7.52
2023-02-24T09:43:19.503Z,7.54
2023-02-24T09:44:19.558Z,7.58
2023-02-24T09:45:19.468Z,7.58
2023-02-24T09:46:19.620Z,7.55
2023-02-24T09:47:19.450Z,7.47
2023-02-24T09:48:19.466Z,7.39
2023-02-24T09:49:19.464Z,7.37
2023-02-24T09:50:38.295Z,7.29
2023-02-24T09:51:19.933Z,7.24
2023-02-24T09:52:19.396Z,7.25
2023-02-24T09:53:19.397Z,7.29
2023-02-24T09:54:19.375Z,7.36
2023-02-24T09:55:19.387Z,7.37
2023-02-24T09:56:19.350Z,7.37
2023-02-24T09:57:19.345Z,7.36
2023-02-24T09:58:19.325Z,7.36
2023-02-24T09:59:19.316Z,7.31
2023-02-24T10:00:19.303Z,7.36
2023-02-24T10:01:19.737Z,7.42
2023-02-24T10:02:19.367Z,7.49
2023-02-24T10:03:19.282Z,7.58
2023-02-24T10:04:21.392Z,7.68
2023-02-24T10:05:19.250Z,7.73
2023-02-24T10:06:19.241Z,7.79
2023-02-24T10:07:19.233Z,7.82
2023-02-24T10:08:19.219Z,7.85
2023-02-24T10:09:19.207Z,7.80
2023-02-24T10:10:19.190Z,7.80
2023-02-24T10:11:19.336Z,7.79
2023-02-24T10:12:19.165Z,7.76
2023-02-24T10:13:19.173Z,7.70
2023-02-24T10:14:19.149Z,7.73
2023-02-24T10:15:19.206Z,7.73
2023-02-24T10:16:19.156Z,7.73
2023-02-24T10:17:20.683Z,7.72
2023-02-24T10:18:19.095Z,7.70
2023-02-24T10:19:19.085Z,7.77
2023-02-24T10:20:19.081Z,7.85
2023-02-24T10:21:19.435Z,7.95
2023-02-24T10:22:19.055Z,8.03
2023-02-24T10:23:19.050Z,8.11
2023-02-24T10:24:19.030Z,8.18
2023-02-24T10:25:21.219Z,8.11
2023-02-24T10:26:19.010Z,8.13
2023-02-24T10:27:19.032Z,8.15
2023-02-24T10:28:19.026Z,8.16
2023-02-24T10:29:19.109Z,8.22
2023-02-24T10:30:18.976Z,8.11
2023-02-24T10:31:19.445Z,8.04
2023-02-24T10:32:19.120Z,8.03
2023-02-24T10:33:18.969Z,8.08
2023-02-24T10:34:18.933Z,8.03
2023-02-24T10:35:18.914Z,8.04
2023-02-24T10:36:18.898Z,8.09
2023-02-24T10:37:27.506Z,8.05
2023-02-24T10:38:18.879Z,8.00
2023-02-24T10:39:18.854Z,8.08
2023-02-24T10:40:18.920Z,8.12
2023-02-24T10:41:19.073Z,8.13
2023-02-24T10:42:18.877Z,8.20
2023-02-24T10:43:18.922Z,8.22
2023-02-24T10:44:18.799Z,8.20
2023-02-24T10:45:19.618Z,8.16
2023-02-24T10:46:26.262Z,8.12
2023-02-24T10:47:18.770Z,8.04
2023-02-24T10:48:19.528Z,7.98
2023-02-24T10:49:18.747Z,7.91
2023-02-24T10:50:18.742Z,7.86
2023-02-24T10:51:18.774Z,7.87
2023-02-24T10:52:18.707Z,7.90
2023-02-24T10:53:18.709Z,7.86
2023-02-24T10:54:18.682Z,7.79
2023-02-24T10:55:18.674Z,7.80
2023-02-24T10:56:18.896Z,7.82
2023-02-24T10:57:18.742Z,7.76
2023-02-24T10:58:18.639Z,7.68
2023-02-24T10:59:18.708Z,7.64
2023-02-24T11:00:18.616Z,7.67
2023-02-24T11:01:18.713Z,7.68
2023-02-24T11:02:18.671Z,7.70
2023-02-24T11:03:31.390Z,7.65
2023-02-24T11:04:18.580Z,7.67
2023-02-24T11:05:18.561Z,7.70
2023-02-24T11:06:18.552Z,7.70
2023-02-24T11:07:18.537Z,7.64
2023-02-24T11:08:18.522Z,7.61
2023-02-24T11:09:18.522Z,7.58
2023-02-24T11:10:18.570Z,7.60
2023-02-24T11:11:18.641Z,7.57
2023-02-24T11:12:18.475Z,7.57
2023-02-24T11:13:18.470Z,7.54
2023-02-24T11:14:18.449Z,7.54
2023-02-24T11:15:18.475Z,7.52
2023-02-24T11:16:18.537Z,7.46
2023-02-24T11:17:18.414Z,7.37
2023-02-24T11:18:18.404Z,7.33
2023-02-24T11:19:18.400Z,7.33
2023-02-24T11:20:18.509Z,7.26
2023-02-24T11:21:18.615Z,7.22
2023-02-24T11:22:18.370Z,7.21
2023-02-24T11:23:18.353Z,7.19
2023-02-24T11:24:18.336Z,7.11
2023-02-24T11:25:18.336Z,7.13
2023-02-24T11:26:18.320Z,7.10
2023-02-24T11:27:18.311Z,7.10
2023-02-24T11:28:18.293Z,7.08
2023-02-24T11:29:18.285Z,7.04
2023-02-24T11:30:18.442Z,7.03
2023-02-24T11:31:18.425Z,7.03
2023-02-24T11:32:18.487Z,7.04
2023-02-24T11:33:18.231Z,7.00
2023-02-24T11:34:18.218Z,7.00
2023-02-24T11:35:18.210Z,6.84
2023-02-24T11:36:18.221Z,6.80
2023-02-24T11:37:18.209Z,6.78
2023-02-24T11:38:18.221Z,6.77
2023-02-24T11:39:21.517Z,6.72
2023-02-24T11:40:18.178Z,6.69
2023-02-24T11:41:18.193Z,6.66
2023-02-24T11:42:18.219Z,6.64
2023-02-24T11:43:18.209Z,6.70
2023-02-24T11:44:18.122Z,6.70
2023-02-24T11:45:18.113Z,6.66
2023-02-24T11:46:18.197Z,6.49
2023-02-24T11:47:18.116Z,6.44
2023-02-24T11:48:18.093Z,6.42
2023-02-24T11:49:18.064Z,6.42
2023-02-24T11:50:18.062Z,6.49
2023-02-24T11:51:18.045Z,6.51
2023-02-24T11:52:18.035Z,6.55
2023-02-24T11:53:18.038Z,6.59
2023-02-24T11:54:18.012Z,6.63
2023-02-24T11:55:18.005Z,6.63
2023-02-24T11:56:17.989Z,6.66
2023-02-24T11:57:17.973Z,6.64
2023-02-24T11:58:17.972Z,6.63
2023-02-24T11:59:17.945Z,6.46
2023-02-24T12:00:18.148Z,6.36
2023-02-24T12:01:17.930Z,6.36
2023-02-24T12:02:17.920Z,6.37
2023-02-24T12:03:18.074Z,6.37
2023-02-24T12:04:17.890Z,6.39
2023-02-24T12:05:17.880Z,6.36
2023-02-24T12:06:17.952Z,6.24
2023-02-24T12:07:17.856Z,6.02
2023-02-24T12:08:17.852Z,5.88
2023-02-24T12:09:17.834Z,5.93
2023-02-24T12:10:18.015Z,6.00
2023-02-24T12:11:17.821Z,5.84
2023-02-24T12:12:17.807Z,5.69
2023-02-24T12:13:17.804Z,5.65
2023-02-24T12:14:17.788Z,5.73
2023-02-24T12:15:17.778Z,5.76
2023-02-24T12:16:17.849Z,5.70
2023-02-24T12:17:17.747Z,5.65
2023-02-24T12:18:17.752Z,5.62
2023-02-24T12:19:17.759Z,5.58
2023-02-24T12:20:17.717Z,5.49
2023-02-24T12:21:17.714Z,5.50
2023-02-24T12:22:17.698Z,5.61
2023-02-24T12:23:17.698Z,5.72
2023-02-24T12:24:17.670Z,5.82
2023-02-24T12:25:17.665Z,5.84
2023-02-24T12:26:17.665Z,5.85
2023-02-24T12:27:17.664Z,5.87
2023-02-24T12:28:17.631Z,5.91
2023-02-24T12:29:17.613Z,5.97
2023-02-24T12:30:17.610Z,5.93
2023-02-24T12:31:17.693Z,5.80
2023-02-24T12:32:17.780Z,5.67
2023-02-24T12:33:17.583Z,5.57
2023-02-24T12:34:17.558Z,5.47
2023-02-24T12:35:17.603Z,5.38
2023-02-24T12:36:17.541Z,5.40
2023-02-24T12:37:17.534Z,5.46
2023-02-24T12:38:17.525Z,5.54
2023-02-24T12:39:17.508Z,5.55
2023-02-24T12:40:17.498Z,5.50
2023-02-24T12:41:17.505Z,5.40
2023-02-24T12:42:17.477Z,5.35
2023-02-24T12:43:17.466Z,5.35
2023-02-24T12:44:17.446Z,5.36
2023-02-24T12:45:17.452Z,5.33
2023-02-24T12:46:17.461Z,5.29
2023-02-24T12:47:17.428Z,5.23
2023-02-24T12:48:17.409Z,5.20
2023-02-24T12:49:17.393Z,5.21
2023-02-24T12:50:17.388Z,5.18
2023-02-24T12:51:17.413Z,5.18
2023-02-24T12:52:17.373Z,5.14
2023-02-24T12:53:17.359Z,5.11
2023-02-24T12:54:17.342Z,5.11
2023-02-24T12:55:17.335Z,5.10
2023-02-24T12:56:17.322Z,5.05
2023-02-24T12:57:17.313Z,5.02
2023-02-24T12:58:17.292Z,5.03
2023-02-24T12:59:17.305Z,5.08
2023-02-24T13:00:17.279Z,5.06
2023-02-24T13:01:17.363Z,5.02
2023-02-24T13:02:17.314Z,4.99
2023-02-24T13:03:17.238Z,5.05
2023-02-24T13:04:17.234Z,5.08
2023-02-24T13:05:17.237Z,5.05
2023-02-24T13:06:17.216Z,5.00
2023-02-24T13:07:17.226Z,4.97
2023-02-24T13:08:17.189Z,4.96
2023-02-24T13:09:17.172Z,4.99
2023-02-24T13:10:17.169Z,4.97
2023-02-24T13:11:17.171Z,4.97
2023-02-24T13:12:17.139Z,4.93
2023-02-24T13:13:17.146Z,4.93
2023-02-24T13:14:17.125Z,4.92
2023-02-24T13:15:17.113Z,4.92
2023-02-24T13:16:17.168Z,4.87
2023-02-24T13:17:17.093Z,4.87
2023-02-24T13:18:17.084Z,4.93